createdAt,value
2023-03-22T00:01:46.529Z,12.27
2023-03-22T00:04:13.203Z,11.85
2023-03-22T00:06:40.017Z,13.65
2023-03-22T00:09:06.544Z,16.38
2023-03-22T00:11:33.033Z,13.18
2023-03-22T00:13:59.731Z,16.33
2023-03-22T00:16:26.721Z,14.20
2023-03-22T00:18:53.339Z,14.35
2023-03-22T00:21:20.090Z,14.63
2023-03-22T00:23:46.680Z,17.02
2023-03-22T00:26:14.405Z,16.30
2023-03-22T00:28:41.685Z,13.70
2023-03-22T00:31:09.236Z,13.52
2023-03-22T00:33:36.473Z,11.43
2023-03-22T00:36:11.429Z,12.88
2023-03-22T00:38:42.799Z,12.27
2023-03-22T00:41:14.098Z,13.10
2023-03-22T00:43:41.152Z,11.65
2023-03-22T00:48:34.599Z,15.20
2023-03-22T00:51:01.177Z,11.57
2023-03-22T00:53:29.183Z,14.02
2023-03-22T00:55:56.820Z,13.80
2023-03-22T00:58:23.411Z,15.07
2023-03-22T01:00:50.468Z,13.38
2023-03-22T01:05:47.007Z,15.07
2023-03-22T01:08:14.958Z,14.77
2023-03-22T01:10:42.632Z,12.70
2023-03-22T01:13:10.918Z,11.48
2023-03-22T01:15:38.060Z,13.30
2023-03-22T01:18:04.802Z,15.18
2023-03-22T01:20:32.023Z,12.95
2023-03-22T01:22:58.595Z,13.07
2023-03-22T01:25:25.265Z,13.93
2023-03-22T01:27:52.563Z,14.10
2023-03-22T01:30:19.311Z,11.57
2023-03-22T01:32:46.022Z,13.65
2023-03-22T01:35:12.494Z,10.68
2023-03-22T01:37:39.046Z,12.45
2023-03-22T01:40:06.655Z,11.38
2023-03-22T01:42:33.348Z,13.27
2023-03-22T01:45:27.232Z,14.25
2023-03-22T01:48:02.382Z,11.27
2023-03-22T01:50:30.231Z,15.60
2023-03-22T01:52:57.795Z,15.15
2023-03-22T01:55:26.111Z,11.25
2023-03-22T01:57:53.825Z,15.20
2023-03-22T02:00:21.155Z,13.75
2023-03-22T02:02:50.615Z,12.43
2023-03-22T02:05:17.744Z,12.55
2023-03-22T02:07:44.862Z,10.40
2023-03-22T02:10:17.710Z,9.57
2023-03-22T02:13:24.650Z,12.88
2023-03-22T02:16:00.120Z,12.35
2023-03-22T02:18:44.619Z,12.55
2023-03-22T02:21:35.725Z,12.07
2023-03-22T02:24:17.551Z,11.20
2023-03-22T02:27:29.327Z,10.23
2023-03-22T02:30:23.579Z,11.98
2023-03-22T02:33:02.341Z,10.82
2023-03-22T02:35:43.430Z,13.55
2023-03-22T02:38:34.823Z,12.10
2023-03-22T02:41:08.226Z,11.43
2023-03-22T02:43:42.082Z,12.13
2023-03-22T02:46:31.770Z,9.43
2023-03-22T02:49:46.008Z,10.75
2023-03-22T02:52:19.058Z,11.20
2023-03-22T02:54:51.479Z,10.32
2023-03-22T02:57:43.450Z,11.75
2023-03-22T03:00:13.994Z,15.93
2023-03-22T03:02:52.803Z,10.50
2023-03-22T03:05:21.074Z,12.40
2023-03-22T03:07:56.356Z,9.07
2023-03-22T03:10:23.773Z,12.13
2023-03-22T03:12:50.539Z,9.00
2023-03-22T03:15:20.133Z,10.07
2023-03-22T03:18:13.833Z,9.05
2023-03-22T03:20:52.353Z,9.95
2023-03-22T03:23:55.512Z,10.40
2023-03-22T03:26:41.077Z,11.45
2023-03-22T03:29:22.642Z,11.95
2023-03-22T03:32:16.851Z,9.98
2023-03-22T03:34:51.319Z,9.23
2023-03-22T03:37:22.849Z,12.27
2023-03-22T03:40:09.840Z,10.45
2023-03-22T03:42:46.015Z,9.32
2023-03-22T03:45:14.427Z,9.57
2023-03-22T03:47:43.418Z,9.98
2023-03-22T03:50:12.861Z,8.68
2023-03-22T03:52:39.313Z,10.00
2023-03-22T03:55:06.265Z,8.43
2023-03-22T03:59:59.309Z,10.73
2023-03-22T04:02:26.011Z,8.57
2023-03-22T04:04:52.468Z,11.27
2023-03-22T04:07:19.041Z,8.98
2023-03-22T04:09:45.639Z,10.75
2023-03-22T04:12:12.233Z,12.23
2023-03-22T04:14:38.741Z,10.23
2023-03-22T04:17:05.311Z,13.15
2023-03-22T04:19:32.547Z,10.80
2023-03-22T04:22:00.251Z,10.52
2023-03-22T04:24:27.133Z,10.75
2023-03-22T04:26:53.841Z,10.93
2023-03-22T04:29:22.115Z,10.05
2023-03-22T04:31:48.668Z,9.23
2023-03-22T04:34:15.145Z,12.32
2023-03-22T04:36:41.880Z,7.68
2023-03-22T04:39:11.256Z,8.45
2023-03-22T04:41:37.831Z,7.43
2023-03-22T04:44:05.793Z,10.10
2023-03-22T04:46:37.202Z,11.32
2023-03-22T04:49:07.073Z,10.25
2023-03-22T04:51:33.587Z,10.80
2023-03-22T04:54:00.655Z,10.07
2023-03-22T04:58:53.672Z,10.80
2023-03-22T05:01:20.727Z,9.30
2023-03-22T05:03:47.635Z,10.77
2023-03-22T05:06:14.770Z,8.77
2023-03-22T05:11:12.378Z,10.50
2023-03-22T05:13:39.563Z,11.02
2023-03-22T05:16:06.795Z,8.23
2023-03-22T05:18:33.577Z,9.48
2023-03-22T05:21:06.688Z,12.95
2023-03-22T05:23:33.243Z,11.35
2023-03-22T05:26:01.672Z,9.20
2023-03-22T05:28:28.586Z,8.63
2023-03-22T05:33:23.913Z,9.45
2023-03-22T05:35:51.231Z,9.35
2023-03-22T05:38:18.263Z,12.23
2023-03-22T05:40:45.515Z,12.57
2023-03-22T05:43:12.438Z,10.95
2023-03-22T05:45:38.966Z,11.63
2023-03-22T05:48:06.131Z,9.88
2023-03-22T05:50:33.131Z,10.95
2023-03-22T05:53:00.031Z,11.10
2023-03-22T05:55:27.524Z,12.13
2023-03-22T05:57:54.819Z,11.18
2023-03-22T06:00:21.912Z,11.07
2023-03-22T06:05:17.473Z,10.63
2023-03-22T06:07:44.773Z,13.15
2023-03-22T06:10:13.446Z,11.23
2023-03-22T06:12:40.313Z,13.40
2023-03-22T06:15:08.239Z,15.32
2023-03-22T06:17:34.951Z,10.07
2023-03-22T06:20:01.521Z,11.05
2023-03-22T06:22:30.551Z,13.98
2023-03-22T06:24:57.065Z,10.45
2023-03-22T06:27:23.553Z,11.02
2023-03-22T06:29:51.061Z,9.60
2023-03-22T06:32:17.950Z,7.47
2023-03-22T06:34:44.589Z,10.25
2023-03-22T06:37:11.139Z,14.20
2023-03-22T06:39:37.593Z,12.07
2023-03-22T06:42:04.118Z,9.00
2023-03-22T06:44:30.866Z,11.73
2023-03-22T06:46:57.389Z,9.60
2023-03-22T06:49:24.170Z,7.95
2023-03-22T06:51:50.730Z,9.75
2023-03-22T06:54:17.352Z,9.15
2023-03-22T06:56:43.922Z,8.68
2023-03-22T06:59:10.587Z,7.38
2023-03-22T07:01:37.171Z,7.47
2023-03-22T07:04:04.124Z,10.70
2023-03-22T07:06:32.702Z,11.02
2023-03-22T07:08:59.657Z,6.45
2023-03-22T07:11:26.519Z,12.35
2023-03-22T07:13:54.670Z,10.82
2023-03-22T07:16:22.116Z,9.93
2023-03-22T07:18:49.146Z,7.63
2023-03-22T07:26:09.085Z,10.88
2023-03-22T07:28:35.828Z,9.02
2023-03-22T07:31:05.018Z,7.65
2023-03-22T07:33:31.661Z,8.70
2023-03-22T07:35:58.242Z,11.30
2023-03-22T07:38:24.873Z,8.68
2023-03-22T07:40:54.990Z,9.13
2023-03-22T07:43:22.988Z,10.35
2023-03-22T07:45:50.610Z,7.80
2023-03-22T07:48:18.409Z,11.55
2023-03-22T07:50:45.652Z,8.55
2023-03-22T07:53:12.560Z,9.00
2023-03-22T07:55:39.962Z,8.20
2023-03-22T07:58:06.593Z,8.27
2023-03-22T08:00:33.129Z,9.52
2023-03-22T08:03:01.011Z,9.00
2023-03-22T08:05:27.623Z,9.35
2023-03-22T08:07:54.484Z,10.25
2023-03-22T08:10:21.084Z,8.40
2023-03-22T08:12:47.562Z,10.13
2023-03-22T08:15:14.175Z,10.05
2023-03-22T08:17:40.730Z,9.98
2023-03-22T08:20:09.158Z,11.82
2023-03-22T08:22:36.666Z,9.85
2023-03-22T08:25:04.817Z,10.60
2023-03-22T08:27:31.789Z,8.85
2023-03-22T08:32:26.210Z,12.32
2023-03-22T08:34:52.871Z,10.57
2023-03-22T08:37:20.435Z,9.23
2023-03-22T08:39:47.405Z,9.73
2023-03-22T08:44:40.266Z,8.82
2023-03-22T08:47:07.546Z,11.10
2023-03-22T08:49:34.151Z,8.93
2023-03-22T08:52:00.838Z,8.40
2023-03-22T08:54:33.528Z,8.93
2023-03-22T08:57:00.728Z,11.85
2023-03-22T08:59:27.462Z,8.80
2023-03-22T09:01:54.071Z,10.45
2023-03-22T09:04:20.759Z,9.57
2023-03-22T09:06:47.282Z,10.32
2023-03-22T09:09:13.977Z,7.43
2023-03-22T09:11:42.637Z,10.85
2023-03-22T09:14:10.981Z,7.05
2023-03-22T09:16:37.647Z,8.63
2023-03-22T09:19:04.433Z,8.82
2023-03-22T09:21:31.053Z,7.45
2023-03-22T09:23:57.667Z,8.07
2023-03-22T09:26:25.623Z,7.57
2023-03-22T09:28:52.307Z,8.65
2023-03-22T09:31:20.535Z,6.28
2023-03-22T09:33:47.365Z,6.18
2023-03-22T09:36:13.914Z,9.55
2023-03-22T09:38:42.116Z,6.53
2023-03-22T09:41:15.595Z,5.70
2023-03-22T09:43:50.994Z,7.00
2023-03-22T09:46:39.270Z,6.50
2023-03-22T09:49:14.867Z,6.65
2023-03-22T09:51:44.811Z,5.07
2023-03-22T09:54:15.033Z,4.68
2023-03-22T09:56:43.406Z,5.47
2023-03-22T09:59:17.894Z,6.13
2023-03-22T10:02:00.971Z,4.65
2023-03-22T10:04:33.426Z,4.00
2023-03-22T10:07:13.945Z,4.72
2023-03-22T10:09:54.837Z,7.07
2023-03-22T10:12:29.160Z,4.68
2023-03-22T10:15:19.613Z,4.28
2023-03-22T10:17:52.560Z,4.22
2023-03-22T10:20:28.648Z,4.55
2023-03-22T10:23:01.181Z,5.43
2023-03-22T10:25:36.599Z,5.03
2023-03-22T10:28:14.105Z,4.70
2023-03-22T10:30:42.926Z,7.00
2023-03-22T10:33:19.049Z,4.43
2023-03-22T10:35:46.469Z,3.15
2023-03-22T10:38:21.375Z,5.25
2023-03-22T10:40:49.442Z,3.13
2023-03-22T10:43:23.641Z,4.38
2023-03-22T10:45:52.757Z,3.72
2023-03-22T10:48:25.421Z,4.00
2023-03-22T10:50:52.227Z,4.43
2023-03-22T10:53:38.733Z,4.82
2023-03-22T10:56:11.306Z,10.48
2023-03-22T10:58:37.833Z,3.38
2023-03-22T11:01:13.267Z,4.38
2023-03-22T11:03:41.620Z,5.63
2023-03-22T11:06:38.156Z,5.38
2023-03-22T11:09:20.345Z,6.20
2023-03-22T11:11:56.252Z,3.60
2023-03-22T11:14:36.089Z,3.40
2023-03-22T11:17:09.123Z,5.40
2023-03-22T11:20:01.315Z,3.03
2023-03-22T11:22:38.022Z,5.47
2023-03-22T11:27:34.653Z,4.55
2023-03-22T11:30:20.354Z,4.57
2023-03-22T11:32:47.438Z,3.95
2023-03-22T11:35:15.959Z,3.28
2023-03-22T11:37:48.530Z,3.47
2023-03-22T11:40:19.192Z,6.60
2023-03-22T11:42:47.586Z,3.05
2023-03-22T11:45:27.273Z,2.47
2023-03-22T11:47:54.790Z,1.95
2023-03-22T11:50:42.356Z,4.65
2023-03-22T11:53:17.025Z,4.25
2023-03-22T11:55:45.308Z,3.40
2023-03-22T11:58:27.138Z,3.08
2023-03-22T12:00:58.567Z,2.80
2023-03-22T12:03:31.279Z,2.22
2023-03-22T12:06:01.645Z,1.60
2023-03-22T12:08:49.637Z,2.00
2023-03-22T12:11:24.856Z,2.00
2023-03-22T12:14:05.009Z,1.85
2023-03-22T12:16:40.857Z,2.55
2023-03-22T12:19:23.607Z,7.50
2023-03-22T12:21:51.679Z,2.30
2023-03-22T12:24:32.285Z,2.67
2023-03-22T12:27:04.738Z,2.40
2023-03-22T12:29:32.109Z,3.47
2023-03-22T12:32:04.070Z,2.65
2023-03-22T12:34:41.770Z,1.80
2023-03-22T12:37:15.442Z,1.90
2023-03-22T12:40:00.695Z,2.63
2023-03-22T12:42:52.372Z,1.45
2023-03-22T12:45:24.888Z,1.63
2023-03-22T12:48:13.844Z,6.38
2023-03-22T12:50:47.242Z,3.17
2023-03-22T12:53:17.734Z,5.80
2023-03-22T12:55:46.214Z,3.72
2023-03-22T12:58:18.378Z,3.88
2023-03-22T13:00:51.354Z,5.65
2023-03-22T13:03:18.289Z,1.80
2023-03-22T13:05:46.790Z,2.25
2023-03-22T13:08:13.545Z,3.10
2023-03-22T13:13:32.016Z,2.67
2023-03-22T13:16:09.826Z,4.13
2023-03-22T13:18:36.466Z,2.35
2023-03-22T13:21:16.650Z,3.75
2023-03-22T13:24:13.441Z,4.57
2023-03-22T13:26:47.828Z,3.15
2023-03-22T13:29:36.537Z,4.05
2023-03-22T13:32:30.886Z,2.83
2023-03-22T13:34:57.597Z,3.38
2023-03-22T13:37:47.081Z,2.90
2023-03-22T13:40:23.020Z,2.05
2023-03-22T13:42:51.330Z,3.08
2023-03-22T13:45:56.655Z,2.40
2023-03-22T13:48:39.991Z,2.63
2023-03-22T13:51:14.224Z,1.88
2023-03-22T13:53:46.220Z,3.70
2023-03-22T13:56:13.578Z,3.95
2023-03-22T13:58:41.260Z,2.95
2023-03-22T14:01:15.708Z,1.73
2023-03-22T14:03:47.453Z,1.95
2023-03-22T14:06:31.860Z,2.53
2023-03-22T14:09:09.418Z,3.83
2023-03-22T14:11:43.931Z,3.55
2023-03-22T14:14:19.334Z,2.40
2023-03-22T14:17:00.300Z,3.35
2023-03-22T14:19:31.766Z,4.07
